sensor_id;sensor_type;location;lat;lon;timestamp;pressure;altitude;pressure_sealevel;temperature;humidity
46211;BME280;52144;48.040;-1.594;2023-02-11T00:01:21;103312.78;;;8.14;90.01
46211;BME280;52144;48.040;-1.594;2023-02-11T00:03:51;103319.91;;;8.16;91.94
46211;BME280;52144;48.040;-1.594;2023-02-11T00:06:20;103324.38;;;8.28;91.85
46211;BME280;52144;48.040;-1.594;2023-02-11T00:08:48;103320.06;;;8.41;90.73
46211;BME280;52144;48.040;-1.594;2023-02-11T00:11:19;103316.53;;;8.48;89.22
46211;BME280;52144;48.040;-1.594;2023-02-11T00:13:47;103311.94;;;8.19;88.78
46211;BME280;52144;48.040;-1.594;2023-02-11T00:16:17;103310.16;;;8.20;89.48
46211;BME280;52144;48.040;-1.594;2023-02-11T00:18:46;103316.41;;;8.28;90.65
46211;BME280;52144;48.040;-1.594;2023-02-11T00:21:16;103309.38;;;8.39;90.70
46211;BME280;52144;48.040;-1.594;2023-02-11T00:23:45;103302.38;;;8.49;90.12
46211;BME280;52144;48.040;-1.594;2023-02-11T00:26:13;103300.59;;;8.47;89.84
46211;BME280;52144;48.040;-1.594;2023-02-11T00:28:43;103303.13;;;8.25;89.16
46211;BME280;52144;48.040;-1.594;2023-02-11T00:31:12;103288.09;;;8.33;89.42
46211;BME280;52144;48.040;-1.594;2023-02-11T00:33:40;103292.47;;;8.22;88.00
46211;BME280;52144;48.040;-1.594;2023-02-11T00:36:12;103290.53;;;7.93;87.27
46211;BME280;52144;48.040;-1.594;2023-02-11T00:38:41;103287.91;;;7.95;90.28
46211;BME280;52144;48.040;-1.594;2023-02-11T00:41:10;103286.16;;;7.98;88.74
46211;BME280;52144;48.040;-1.594;2023-02-11T00:43:38;103288.72;;;7.80;88.47
46211;BME280;52144;48.040;-1.594;2023-02-11T00:46:08;103281.47;;;7.60;88.47
46211;BME280;52144;48.040;-1.594;2023-02-11T00:48:36;103289.47;;;7.67;89.57
46211;BME280;52144;48.040;-1.594;2023-02-11T00:51:05;103288.53;;;7.58;89.60
46211;BME280;52144;48.040;-1.594;2023-02-11T00:53:34;103285.94;;;7.61;91.29
46211;BME280;52144;48.040;-1.594;2023-02-11T00:56:03;103296.53;;;7.60;91.03
46211;BME280;52144;48.040;-1.594;2023-02-11T00:58:31;103288.72;;;7.80;93.31
46211;BME280;52144;48.040;-1.594;2023-02-11T01:00:59;103294.91;;;7.83;91.24
46211;BME280;52144;48.040;-1.594;2023-02-11T01:03:28;103291.31;;;7.74;90.05
46211;BME280;52144;48.040;-1.594;2023-02-11T01:05:56;103283.25;;;7.58;90.93
46211;BME280;52144;48.040;-1.594;2023-02-11T01:08:24;103277.94;;;7.58;90.86
46211;BME280;52144;48.040;-1.594;2023-02-11T01:10:54;103279.72;;;7.62;90.86
46211;BME280;52144;48.040;-1.594;2023-02-11T01:13:22;103276.97;;;7.47;89.95
46211;BME280;52144;48.040;-1.594;2023-02-11T01:15:50;103273.31;;;7.34;88.84
46211;BME280;52144;48.040;-1.594;2023-02-11T01:18:18;103277.69;;;7.25;88.01
46211;BME280;52144;48.040;-1.594;2023-02-11T01:20:47;103263.41;;;7.13;85.99
46211;BME280;52144;48.040;-1.594;2023-02-11T01:23:15;103264.22;;;7.03;87.75
46211;BME280;52144;48.040;-1.594;2023-02-11T01:25:43;103264.22;;;7.05;88.08
46211;BME280;52144;48.040;-1.594;2023-02-11T01:28:15;103266.94;;;7.12;90.11
46211;BME280;52144;48.040;-1.594;2023-02-11T01:30:44;103253.72;;;7.17;89.01
46211;BME280;52144;48.040;-1.594;2023-02-11T01:33:12;103262.59;;;7.19;90.00
46211;BME280;52144;48.040;-1.594;2023-02-11T01:35:41;103264.19;;;6.98;87.75
46211;BME280;52144;48.040;-1.594;2023-02-11T01:38:14;103266.69;;;6.88;90.68
46211;BME280;52144;48.040;-1.594;2023-02-11T01:40:46;103266.81;;;6.97;91.30
46211;BME280;52144;48.040;-1.594;2023-02-11T01:43:14;103264.03;;;6.85;90.00
46211;BME280;52144;48.040;-1.594;2023-02-11T01:46:05;103269.25;;;6.77;89.77
46211;BME280;52144;48.040;-1.594;2023-02-11T01:48:42;103268.50;;;6.89;90.20
46211;BME280;52144;48.040;-1.594;2023-02-11T01:51:13;103264.94;;;6.90;89.49
46211;BME280;52144;48.040;-1.594;2023-02-11T01:53:45;103267.66;;;6.93;90.50
46211;BME280;52144;48.040;-1.594;2023-02-11T01:56:32;103268.44;;;6.84;87.62
46211;BME280;52144;48.040;-1.594;2023-02-11T01:59:22;103262.94;;;6.67;89.02
46211;BME280;52144;48.040;-1.594;2023-02-11T02:01:56;103254.94;;;6.61;88.45
46211;BME280;52144;48.040;-1.594;2023-02-11T02:04:27;103259.31;;;6.59;86.81
46211;BME280;52144;48.040;-1.594;2023-02-11T02:07:01;103264.53;;;6.50;85.70
46211;BME280;52144;48.040;-1.594;2023-02-11T02:09:35;103265.44;;;6.52;86.20
46211;BME280;52144;48.040;-1.594;2023-02-11T02:12:04;103264.69;;;6.62;87.44
46211;BME280;52144;48.040;-1.594;2023-02-11T02:14:32;103259.25;;;6.50;86.33
46211;BME280;52144;48.040;-1.594;2023-02-11T02:17:00;103255.53;;;6.35;88.39
46211;BME280;52144;48.040;-1.594;2023-02-11T02:19:56;103252.72;;;6.21;89.50
46211;BME280;52144;48.040;-1.594;2023-02-11T02:23:02;103252.59;;;6.14;91.04
46211;BME280;52144;48.040;-1.594;2023-02-11T02:25:57;103245.72;;;6.25;90.83
46211;BME280;52144;48.040;-1.594;2023-02-11T02:28:53;103253.50;;;6.13;91.57
46211;BME280;52144;48.040;-1.594;2023-02-11T02:31:55;103250.69;;;6.02;89.89
46211;BME280;52144;48.040;-1.594;2023-02-11T02:34:29;103242.69;;;5.97;92.28
46211;BME280;52144;48.040;-1.594;2023-02-11T02:37:05;103240.97;;;5.99;92.01
46211;BME280;52144;48.040;-1.594;2023-02-11T02:39:35;103234.19;;;6.25;92.61
46211;BME280;52144;48.040;-1.594;2023-02-11T02:42:04;103237.47;;;6.00;89.83
46211;BME280;52144;48.040;-1.594;2023-02-11T02:44:32;103237.84;;;5.69;92.26
46211;BME280;52144;48.040;-1.594;2023-02-11T02:47:00;103235.91;;;5.57;93.01
46211;BME280;52144;48.040;-1.594;2023-02-11T02:49:29;103237.69;;;5.58;92.14
46211;BME280;52144;48.040;-1.594;2023-02-11T02:55:07;103229.56;;;5.44;93.55
46211;BME280;52144;48.040;-1.594;2023-02-11T02:57:51;103225.13;;;5.41;93.65
46211;BME280;52144;48.040;-1.594;2023-02-11T03:00:26;103227.94;;;5.55;94.05
46211;BME280;52144;48.040;-1.594;2023-02-11T03:03:12;103221.94;;;5.67;94.31
46211;BME280;52144;48.040;-1.594;2023-02-11T03:05:48;103225.50;;;5.69;93.10
46211;BME280;52144;48.040;-1.594;2023-02-11T03:08:24;103228.19;;;5.71;92.80
46211;BME280;52144;48.040;-1.594;2023-02-11T03:10:56;103216.50;;;5.56;92.31
46211;BME280;52144;48.040;-1.594;2023-02-11T03:13:26;103217.28;;;5.48;91.53
46211;BME280;52144;48.040;-1.594;2023-02-11T03:16:02;103214.63;;;5.49;91.42
46211;BME280;52144;48.040;-1.594;2023-02-11T03:18:32;103204.97;;;5.50;92.37
46211;BME280;52144;48.040;-1.594;2023-02-11T03:21:04;103200.41;;;5.41;91.92
46211;BME280;52144;48.040;-1.594;2023-02-11T03:23:36;103203.03;;;5.41;92.50
46211;BME280;52144;48.040;-1.594;2023-02-11T03:26:12;103201.19;;;5.34;92.17
46211;BME280;52144;48.040;-1.594;2023-02-11T03:28:46;103196.78;;;5.34;93.85
46211;BME280;52144;48.040;-1.594;2023-02-11T03:31:19;103197.72;;;5.38;94.01
46211;BME280;52144;48.040;-1.594;2023-02-11T03:33:54;103192.53;;;5.44;94.32
46211;BME280;52144;48.040;-1.594;2023-02-11T03:36:29;103191.59;;;5.40;93.91
46211;BME280;52144;48.040;-1.594;2023-02-11T03:39:00;103193.53;;;5.52;94.09
46211;BME280;52144;48.040;-1.594;2023-02-11T03:41:30;103187.16;;;5.38;91.61
46211;BME280;52144;48.040;-1.594;2023-02-11T03:44:00;103183.63;;;5.39;92.25
46211;BME280;52144;48.040;-1.594;2023-02-11T03:46:31;103184.47;;;5.36;92.66
46211;BME280;52144;48.040;-1.594;2023-02-11T03:49:02;103186.31;;;5.42;93.22
46211;BME280;52144;48.040;-1.594;2023-02-11T03:51:32;103186.06;;;5.27;92.09
46211;BME280;52144;48.040;-1.594;2023-02-11T03:54:05;103186.66;;;5.07;93.64
46211;BME280;52144;48.040;-1.594;2023-02-11T03:56:42;103179.75;;;5.17;93.77
46211;BME280;52144;48.040;-1.594;2023-02-11T03:59:13;103184.03;;;5.07;93.81
46211;BME280;52144;48.040;-1.594;2023-02-11T04:01:41;103167.97;;;4.95;94.56
46211;BME280;52144;48.040;-1.594;2023-02-11T04:04:09;103176.59;;;4.86;94.47
46211;BME280;52144;48.040;-1.594;2023-02-11T04:06:38;103171.69;;;5.08;94.33
46211;BME280;52144;48.040;-1.594;2023-02-11T04:09:06;103169.91;;;5.05;92.96
46211;BME280;52144;48.040;-1.594;2023-02-11T04:11:34;103173.91;;;4.81;91.92
46211;BME280;52144;48.040;-1.594;2023-02-11T04:14:02;103175.44;;;4.69;93.38
46211;BME280;52144;48.040;-1.594;2023-02-11T04:16:30;103179.97;;;4.76;94.69
46211;BME280;52144;48.040;-1.594;2023-02-11T04:18:58;103177.72;;;4.99;94.10
46211;BME280;52144;48.040;-1.594;2023-02-11T04:21:27;103179.56;;;5.03;93.36
46211;BME280;52144;48.040;-1.594;2023-02-11T04:23:56;103176.72;;;4.91;92.00
46211;BME280;52144;48.040;-1.594;2023-02-11T04:26:24;103176.41;;;4.72;91.50
46211;BME280;52144;48.040;-1.594;2023-02-11T04:28:51;103170.41;;;4.82;93.06
46211;BME280;52144;48.040;-1.594;2023-02-11T04:31:19;103172.94;;;4.78;93.54
46211;BME280;52144;48.040;-1.594;2023-02-11T04:33:47;103167.69;;;4.79;92.18
46211;BME280;52144;48.040;-1.594;2023-02-11T04:36:15;103165.63;;;4.60;92.26
46211;BME280;52144;48.040;-1.594;2023-02-11T04:38:43;103170.31;;;4.76;92.77
46211;BME280;52144;48.040;-1.594;2023-02-11T04:41:12;103159.63;;;4.70;91.53
46211;BME280;52144;48.040;-1.594;2023-02-11T04:43:40;103163.19;;;4.72;91.50
46211;BME280;52144;48.040;-1.594;2023-02-11T04:46:07;103167.63;;;4.75;89.68
46211;BME280;52144;48.040;-1.594;2023-02-11T04:48:35;103169.56;;;4.85;91.21
46211;BME280;52144;48.040;-1.594;2023-02-11T04:51:03;103168.91;;;4.48;87.65
46211;BME280;52144;48.040;-1.594;2023-02-11T04:53:31;103167.84;;;4.38;90.42
46211;BME280;52144;48.040;-1.594;2023-02-11T04:55:59;103164.75;;;4.14;89.83
46211;BME280;52144;48.040;-1.594;2023-02-11T04:58:28;103161.91;;;4.05;90.19
46211;BME280;52144;48.040;-1.594;2023-02-11T05:01:04;103172.66;;;3.71;89.84
46211;BME280;52144;48.040;-1.594;2023-02-11T05:03:32;103159.94;;;3.94;91.21
46211;BME280;52144;48.040;-1.594;2023-02-11T05:06:00;103172.94;;;3.85;94.15
46211;BME280;52144;48.040;-1.594;2023-02-11T05:08:28;103169.66;;;3.95;93.96
46211;BME280;52144;48.040;-1.594;2023-02-11T05:10:56;103158.53;;;4.12;92.46
46211;BME280;52144;48.040;-1.594;2023-02-11T05:13:24;103162.28;;;4.25;91.76
46211;BME280;52144;48.040;-1.594;2023-02-11T05:15:53;103161.09;;;4.07;91.09
46211;BME280;52144;48.040;-1.594;2023-02-11T05:18:21;103164.41;;;3.97;91.42
46211;BME280;52144;48.040;-1.594;2023-02-11T05:20:49;103157.69;;;4.14;91.24
46211;BME280;52144;48.040;-1.594;2023-02-11T05:23:17;103160.66;;;4.31;91.59
46211;BME280;52144;48.040;-1.594;2023-02-11T05:25:45;103160.50;;;4.22;90.25
46211;BME280;52144;48.040;-1.594;2023-02-11T05:28:12;103164.25;;;3.91;91.80
46211;BME280;52144;48.040;-1.594;2023-02-11T05:30:40;103160.25;;;4.10;94.15
46211;BME280;52144;48.040;-1.594;2023-02-11T05:33:09;103163.91;;;4.16;92.36
46211;BME280;52144;48.040;-1.594;2023-02-11T05:35:37;103166.34;;;4.06;90.69
46211;BME280;52144;48.040;-1.594;2023-02-11T05:38:05;103163.69;;;4.06;91.60
46211;BME280;52144;48.040;-1.594;2023-02-11T05:40:33;103163.97;;;4.21;93.23
46211;BME280;52144;48.040;-1.594;2023-02-11T05:43:01;103167.13;;;4.01;92.20
46211;BME280;52144;48.040;-1.594;2023-02-11T05:45:29;103163.19;;;4.25;93.04
46211;BME280;52144;48.040;-1.594;2023-02-11T05:47:56;103172.22;;;4.36;94.46
46211;BME280;52144;48.040;-1.594;2023-02-11T05:50:26;103160.06;;;4.46;92.31
46211;BME280;52144;48.040;-1.594;2023-02-11T05:52:53;103157.28;;;4.38;91.69
46211;BME280;52144;48.040;-1.594;2023-02-11T05:55:21;103149.94;;;4.22;91.29
46211;BME280;52144;48.040;-1.594;2023-02-11T05:57:49;103145.25;;;4.09;91.85
46211;BME280;52144;48.040;-1.594;2023-02-11T06:00:17;103155.91;;;4.12;92.11
46211;BME280;52144;48.040;-1.594;2023-02-11T06:02:45;103155.81;;;4.07;91.53
46211;BME280;52144;48.040;-1.594;2023-02-11T06:05:13;103156.50;;;3.98;93.10
46211;BME280;52144;48.040;-1.594;2023-02-11T06:07:42;103156.31;;;3.89;92.91
46211;BME280;52144;48.040;-1.594;2023-02-11T06:10:10;103149.88;;;3.75;93.26
46211;BME280;52144;48.040;-1.594;2023-02-11T06:12:39;103155.09;;;3.73;94.12
46211;BME280;52144;48.040;-1.594;2023-02-11T06:15:07;103146.41;;;3.77;93.70
46211;BME280;52144;48.040;-1.594;2023-02-11T06:17:35;103158.03;;;3.87;95.23
46211;BME280;52144;48.040;-1.594;2023-02-11T06:20:05;103156.41;;;3.94;94.20
46211;BME280;52144;48.040;-1.594;2023-02-11T06:22:33;103155.91;;;4.12;94.41
46211;BME280;52144;48.040;-1.594;2023-02-11T06:25:02;103152.50;;;4.19;94.71
46211;BME280;52144;48.040;-1.594;2023-02-11T06:27:30;103146.19;;;4.11;92.58
46211;BME280;52144;48.040;-1.594;2023-02-11T06:29:58;103147.34;;;4.24;93.73
46211;BME280;52144;48.040;-1.594;2023-02-11T06:32:26;103150.09;;;4.31;93.28
46211;BME280;52144;48.040;-1.594;2023-02-11T06:35:09;103151.81;;;4.29;92.71
46211;BME280;52144;48.040;-1.594;2023-02-11T06:37:38;103158.59;;;4.15;92.70
46211;BME280;52144;48.040;-1.594;2023-02-11T06:40:08;103152.56;;;4.22;92.16
46211;BME280;52144;48.040;-1.594;2023-02-11T06:42:36;103149.88;;;4.19;95.04
46211;BME280;52144;48.040;-1.594;2023-02-11T06:45:05;103160.38;;;4.16;95.50
46211;BME280;52144;48.040;-1.594;2023-02-11T06:47:35;103155.84;;;4.10;95.99
46211;BME280;52144;48.040;-1.594;2023-02-11T06:50:03;103160.53;;;4.24;94.76
46211;BME280;52144;48.040;-1.594;2023-02-11T06:52:31;103161.34;;;4.21;94.10
46211;BME280;52144;48.040;-1.594;2023-02-11T06:54:59;103160.25;;;4.10;93.63
46211;BME280;52144;48.040;-1.594;2023-02-11T06:57:30;103156.13;;;4.24;93.13
46211;BME280;52144;48.040;-1.594;2023-02-11T06:59:58;103166.88;;;3.89;92.22
46211;BME280;52144;48.040;-1.594;2023-02-11T07:02:26;103167.66;;;3.85;93.40
46211;BME280;52144;48.040;-1.594;2023-02-11T07:04:54;103171.47;;;3.99;94.58
46211;BME280;52144;48.040;-1.594;2023-02-11T07:07:22;103172.31;;;3.98;94.63
46211;BME280;52144;48.040;-1.594;2023-02-11T07:09:49;103173.31;;;4.04;93.98
46211;BME280;52144;48.040;-1.594;2023-02-11T07:12:17;103167.28;;;4.09;96.09
46211;BME280;52144;48.040;-1.594;2023-02-11T07:14:47;103172.94;;;4.29;94.51
46211;BME280;52144;48.040;-1.594;2023-02-11T07:17:14;103171.94;;;4.22;92.68
46211;BME280;52144;48.040;-1.594;2023-02-11T07:19:42;103172.78;;;4.20;93.27
46211;BME280;52144;48.040;-1.594;2023-02-11T07:22:10;103172.94;;;4.28;94.00
46211;BME280;52144;48.040;-1.594;2023-02-11T07:24:38;103172.56;;;4.11;93.51
46211;BME280;52144;48.040;-1.594;2023-02-11T07:27:06;103182.22;;;4.09;92.96
46211;BME280;52144;48.040;-1.594;2023-02-11T07:29:33;103191.97;;;4.13;94.53
46211;BME280;52144;48.040;-1.594;2023-02-11T07:32:03;103186.69;;;4.13;93.60
46211;BME280;52144;48.040;-1.594;2023-02-11T07:34:31;103197.38;;;4.17;93.55
46211;BME280;52144;48.040;-1.594;2023-02-11T07:36:58;103188.53;;;4.17;93.33
46211;BME280;52144;48.040;-1.594;2023-02-11T07:39:26;103186.16;;;4.31;95.19
46211;BME280;52144;48.040;-1.594;2023-02-11T07:41:54;103191.69;;;4.43;94.28
46211;BME280;52144;48.040;-1.594;2023-02-11T07:44:23;103193.38;;;4.39;92.71
46211;BME280;52144;48.040;-1.594;2023-02-11T07:46:50;103196.00;;;4.39;91.72
46211;BME280;52144;48.040;-1.594;2023-02-11T07:49:20;103198.69;;;4.41;92.37
46211;BME280;52144;48.040;-1.594;2023-02-11T07:51:47;103202.56;;;4.58;93.47
46211;BME280;52144;48.040;-1.594;2023-02-11T07:54:16;103208.91;;;4.68;92.10
46211;BME280;52144;48.040;-1.594;2023-02-11T07:56:44;103206.38;;;4.76;90.90
46211;BME280;52144;48.040;-1.594;2023-02-11T07:59:12;103200.25;;;4.77;91.45
46211;BME280;52144;48.040;-1.594;2023-02-11T08:01:40;103199.19;;;4.67;90.70
46211;BME280;52144;48.040;-1.594;2023-02-11T08:04:08;103203.28;;;5.00;92.09
46211;BME280;52144;48.040;-1.594;2023-02-11T08:06:40;103209.91;;;5.28;91.70
46211;BME280;52144;48.040;-1.594;2023-02-11T08:09:10;103208.13;;;5.29;90.73
46211;BME280;52144;48.040;-1.594;2023-02-11T08:11:40;103210.88;;;5.35;89.26
46211;BME280;52144;48.040;-1.594;2023-02-11T08:14:08;103208.31;;;5.38;89.75
46211;BME280;52144;48.040;-1.594;2023-02-11T08:16:37;103218.84;;;5.36;90.61
46211;BME280;52144;48.040;-1.594;2023-02-11T08:19:07;103226.56;;;5.22;88.42
46211;BME280;52144;48.040;-1.594;2023-02-11T08:21:38;103223.53;;;4.99;90.24
46211;BME280;52144;48.040;-1.594;2023-02-11T08:24:07;103218.97;;;4.91;89.30
46211;BME280;52144;48.040;-1.594;2023-02-11T08:26:35;103224.16;;;4.85;91.62
46211;BME280;52144;48.040;-1.594;2023-02-11T08:29:07;103211.00;;;4.88;91.27
46211;BME280;52144;48.040;-1.594;2023-02-11T08:31:37;103219.63;;;4.77;92.43
46211;BME280;52144;48.040;-1.594;2023-02-11T08:34:05;103220.50;;;4.78;92.04
46211;BME280;52144;48.040;-1.594;2023-02-11T08:36:35;103222.59;;;4.96;91.96
46211;BME280;52144;48.040;-1.594;2023-02-11T08:39:07;103199.56;;;4.90;93.06
46211;BME280;52144;48.040;-1.594;2023-02-11T08:41:46;103209.00;;;4.74;92.99
46211;BME280;52144;48.040;-1.594;2023-02-11T08:44:14;103209.97;;;4.79;94.58
46211;BME280;52144;48.040;-1.594;2023-02-11T08:46:42;103212.19;;;5.07;96.23
46211;BME280;52144;48.040;-1.594;2023-02-11T08:49:10;103216.75;;;5.15;94.13
46211;BME280;52144;48.040;-1.594;2023-02-11T08:51:38;103209.34;;;4.93;92.72
46211;BME280;52144;48.040;-1.594;2023-02-11T08:54:08;103212.13;;;5.02;95.51
46211;BME280;52144;48.040;-1.594;2023-02-11T08:56:36;103204.25;;;5.05;95.13
46211;BME280;52144;48.040;-1.594;2023-02-11T08:59:04;103206.78;;;5.00;95.04
46211;BME280;52144;48.040;-1.594;2023-02-11T09:01:33;103194.97;;;5.32;93.86
46211;BME280;52144;48.040;-1.594;2023-02-11T09:04:01;103195.06;;;5.38;94.35
46211;BME280;52144;48.040;-1.594;2023-02-11T09:06:29;103207.59;;;5.50;94.64
46211;BME280;52144;48.040;-1.594;2023-02-11T09:08:57;103215.72;;;5.62;94.10
46211;BME280;52144;48.040;-1.594;2023-02-11T09:11:29;103219.09;;;5.53;92.38
46211;BME280;52144;48.040;-1.594;2023-02-11T09:13:57;103216.16;;;5.33;93.75
46211;BME280;52144;48.040;-1.594;2023-02-11T09:16:27;103215.50;;;5.48;94.38
46211;BME280;52144;48.040;-1.594;2023-02-11T09:18:55;103213.63;;;5.41;93.51
46211;BME280;52144;48.040;-1.594;2023-02-11T09:21:24;103220.91;;;5.57;92.59
46211;BME280;52144;48.040;-1.594;2023-02-11T09:23:52;103219.25;;;5.62;94.36
46211;BME280;52144;48.040;-1.594;2023-02-11T09:26:22;103215.97;;;5.80;93.90
46211;BME280;52144;48.040;-1.594;2023-02-11T09:28:52;103214.28;;;5.87;95.75
46211;BME280;52144;48.040;-1.594;2023-02-11T09:31:21;103227.53;;;5.87;94.18
46211;BME280;52144;48.040;-1.594;2023-02-11T09:33:53;103216.22;;;5.97;95.33
46211;BME280;52144;48.040;-1.594;2023-02-11T09:36:23;103224.38;;;6.14;93.35
46211;BME280;52144;48.040;-1.594;2023-02-11T09:38:51;103219.91;;;6.09;95.57
46211;BME280;52144;48.040;-1.594;2023-02-11T09:41:30;103217.25;;;6.07;94.47
46211;BME280;52144;48.040;-1.594;2023-02-11T09:44:03;103220.50;;;5.89;96.57
46211;BME280;52144;48.040;-1.594;2023-02-11T09:46:35;103216.34;;;6.08;96.32
46211;BME280;52144;48.040;-1.594;2023-02-11T09:49:05;103218.44;;;6.34;95.41
46211;BME280;52144;48.040;-1.594;2023-02-11T09:51:38;103220.31;;;6.44;93.44
46211;BME280;52144;48.040;-1.594;2023-02-11T09:54:14;103222.16;;;6.53;95.28
46211;BME280;52144;48.040;-1.594;2023-02-11T09:56:43;103222.25;;;6.60;92.82
46211;BME280;52144;48.040;-1.594;2023-02-11T09:59:14;103228.66;;;6.81;93.85
46211;BME280;52144;48.040;-1.594;2023-02-11T10:01:46;103219.84;;;6.83;94.06
46211;BME280;52144;48.040;-1.594;2023-02-11T10:04:26;103232.28;;;6.91;94.03
46211;BME280;52144;48.040;-1.594;2023-02-11T10:07:06;103226.84;;;6.74;92.60
46211;BME280;52144;48.040;-1.594;2023-02-11T10:09:47;103230.50;;;6.91;94.08
46211;BME280;52144;48.040;-1.594;2023-02-11T10:12:30;103226.03;;;6.86;94.99
46211;BME280;52144;48.040;-1.594;2023-02-11T10:15:12;103224.56;;;7.17;93.16
46211;BME280;52144;48.040;-1.594;2023-02-11T10:17:51;103219.47;;;7.46;95.04
46211;BME280;52144;48.040;-1.594;2023-02-11T10:20:30;103220.53;;;7.77;92.68
46211;BME280;52144;48.040;-1.594;2023-02-11T10:23:06;103218.03;;;8.02;90.86
46211;BME280;52144;48.040;-1.594;2023-02-11T10:25:37;103222.47;;;8.08;89.86
46211;BME280;52144;48.040;-1.594;2023-02-11T10:28:12;103221.63;;;8.19;88.70
46211;BME280;52144;48.040;-1.594;2023-02-11T10:30:48;103220.81;;;8.37;88.86
46211;BME280;52144;48.040;-1.594;2023-02-11T10:33:24;103218.31;;;8.77;87.82
46211;BME280;52144;48.040;-1.594;2023-02-11T10:35:52;103215.66;;;9.14;86.03
46211;BME280;52144;48.040;-1.594;2023-02-11T10:38:20;103212.97;;;8.99;87.20
46211;BME280;52144;48.040;-1.594;2023-02-11T10:40:48;103213.84;;;9.32;86.49
46211;BME280;52144;48.040;-1.594;2023-02-11T10:43:19;103212.13;;;9.20;88.13
46211;BME280;52144;48.040;-1.594;2023-02-11T10:45:52;103211.22;;;8.95;86.58
46211;BME280;52144;48.040;-1.594;2023-02-11T10:48:38;103211.22;;;9.19;88.77
46211;BME280;52144;48.040;-1.594;2023-02-11T10:51:14;103209.44;;;9.21;87.01
46211;BME280;52144;48.040;-1.594;2023-02-11T10:53:42;103211.19;;;9.06;89.03
46211;BME280;52144;48.040;-1.594;2023-02-11T10:56:18;103205.00;;;9.27;89.26
46211;BME280;52144;48.040;-1.594;2023-02-11T10:58:54;103205.88;;;9.32;88.89
46211;BME280;52144;48.040;-1.594;2023-02-11T11:01:37;103210.31;;;9.30;88.89
46211;BME280;52144;48.040;-1.594;2023-02-11T11:04:25;103204.13;;;9.18;91.98
46211;BME280;52144;48.040;-1.594;2023-02-11T11:06:54;103204.94;;;9.70;88.83
46211;BME280;52144;48.040;-1.594;2023-02-11T11:09:26;103203.09;;;9.92;87.72
46211;BME280;52144;48.040;-1.594;2023-02-11T11:11:56;103195.81;;;10.28;88.01
46211;BME280;52144;48.040;-1.594;2023-02-11T11:14:24;103187.66;;;10.63;87.07
46211;BME280;52144;48.040;-1.594;2023-02-11T11:16:55;103177.63;;;10.97;85.44
46211;BME280;52144;48.040;-1.594;2023-02-11T11:19:24;103190.75;;;11.20;84.81
46211;BME280;52144;48.040;-1.594;2023-02-11T11:21:54;103188.06;;;11.22;82.75
46211;BME280;52144;48.040;-1.594;2023-02-11T11:24:25;103191.38;;;11.45;82.11
46211;BME280;52144;48.040;-1.594;2023-02-11T11:26:59;103190.50;;;11.45;79.73
46211;BME280;52144;48.040;-1.594;2023-02-11T11:29:32;103185.09;;;11.51;80.98
46211;BME280;52144;48.040;-1.594;2023-02-11T11:32:05;103185.94;;;11.55;79.90
46211;BME280;52144;48.040;-1.594;2023-02-11T11:34:39;103180.41;;;11.73;81.61
46211;BME280;52144;48.040;-1.594;2023-02-11T11:37:12;103182.88;;;11.93;81.41
46211;BME280;52144;48.040;-1.594;2023-02-11T11:39:54;103174.53;;;12.18;79.51
46211;BME280;52144;48.040;-1.594;2023-02-11T11:42:27;103169.13;;;12.22;81.28
46211;BME280;52144;48.040;-1.594;2023-02-11T11:44:57;103173.66;;;12.17;81.18
46211;BME280;52144;48.040;-1.594;2023-02-11T11:47:31;103168.19;;;12.25;81.17
46211;BME280;52144;48.040;-1.594;2023-02-11T11:50:22;103170.47;;;12.53;78.78
46211;BME280;52144;48.040;-1.594;2023-02-11T11:52:57;103161.28;;;12.71;78.82
46211;BME280;52144;48.040;-1.594;2023-02-11T11:55:32;103162.78;;;12.87;78.77
46211;BME280;52144;48.040;-1.594;2023-02-11T11:58:01;103155.56;;;12.92;78.04
46211;BME280;52144;48.040;-1.594;2023-02-11T12:00:34;103157.16;;;13.02;77.22
46211;BME280;52144;48.040;-1.594;2023-02-11T12:03:31;103156.16;;;13.10;77.78
46211;BME280;52144;48.040;-1.594;2023-02-11T12:06:14;103152.56;;;13.11;77.35
46211;BME280;52144;48.040;-1.594;2023-02-11T12:08:52;103139.84;;;13.23;77.75
46211;BME280;52144;48.040;-1.594;2023-02-11T12:11:28;103136.41;;;13.17;75.62
46211;BME280;52144;48.040;-1.594;2023-02-11T12:14:08;103138.03;;;13.25;76.85
46211;BME280;52144;48.040;-1.594;2023-02-11T12:16:49;103135.13;;;13.39;76.93
46211;BME280;52144;48.040;-1.594;2023-02-11T12:19:46;103129.69;;;13.42;72.67
46211;BME280;52144;48.040;-1.594;2023-02-11T12:22:29;103133.66;;;13.68;73.12
46211;BME280;52144;48.040;-1.594;2023-02-11T12:25:24;103141.34;;;13.40;71.15
46211;BME280;52144;48.040;-1.594;2023-02-11T12:28:02;103132.41;;;13.86;72.87
46211;BME280;52144;48.040;-1.594;2023-02-11T12:30:50;103125.38;;;13.79;71.63
46211;BME280;52144;48.040;-1.594;2023-02-11T12:33:35;103116.53;;;13.32;74.52
46211;BME280;52144;48.040;-1.594;2023-02-11T12:36:13;103122.69;;;13.80;72.78
46211;BME280;52144;48.040;-1.594;2023-02-11T12:38:55;103123.75;;;13.72;72.08
46211;BME280;52144;48.040;-1.594;2023-02-11T12:41:40;103112.84;;;14.20;71.67
46211;BME280;52144;48.040;-1.594;2023-02-11T12:44:38;103116.53;;;14.16;71.64
46211;BME280;52144;48.040;-1.594;2023-02-11T12:47:13;103117.03;;;13.94;72.20
46211;BME280;52144;48.040;-1.594;2023-02-11T12:49:52;103113.97;;;14.11;68.74
46211;BME280;52144;48.040;-1.594;2023-02-11T12:52:34;103102.47;;;14.43;68.33
46211;BME280;52144;48.040;-1.594;2023-02-11T12:55:09;103102.91;;;14.64;68.67
46211;BME280;52144;48.040;-1.594;2023-02-11T12:57:41;103095.38;;;14.41;68.99
46211;BME280;52144;48.040;-1.594;2023-02-11T13:00:13;103104.75;;;14.96;65.00
46211;BME280;52144;48.040;-1.594;2023-02-11T13:02:48;103097.28;;;14.73;66.15
46211;BME280;52144;48.040;-1.594;2023-02-11T13:05:26;103093.13;;;14.96;68.20
46211;BME280;52144;48.040;-1.594;2023-02-11T13:08:03;103084.63;;;15.13;67.82
46211;BME280;52144;48.040;-1.594;2023-02-11T13:10:34;103086.56;;;13.98;67.75
46211;BME280;52144;48.040;-1.594;2023-02-11T13:13:12;103069.75;;;14.29;65.53
46211;BME280;52144;48.040;-1.594;2023-02-11T13:15:46;103077.13;;;14.19;65.80